Time;durP1;ratioP1;P1;durP2;ratioP2;P2;SDS_P1;SDS_P2;PMS_P1;PMS_P2;Temp;Humidity;BMP_temperature;BMP_pressure;BME280_temperature;BME280_humidity;BME280_pressure;Samples;Min_cycle;Max_cycle;Signal;HPM_P1;HPM_P2
2023/08/18 00:01:00;;;;;;;3.00;1.60;;;17.20;99.90;;;;;;5123272;27;20079;-57
2023/08/18 00:03:26;;;;;;;2.65;1.60;;;17.20;99.90;;;;;;5125962;27;20150;-57
2023/08/18 00:05:52;;;;;;;2.38;1.27;;;17.20;99.90;;;;;;5123881;27;20158;-56
2023/08/18 00:08:17;;;;;;;1.48;1.23;;;17.20;99.90;;;;;;5125691;27;20429;-56
2023/08/18 00:10:43;;;;;;;1.40;1.27;;;17.20;99.90;;;;;;5123026;27;20062;-56
2023/08/18 00:13:08;;;;;;;1.85;1.38;;;17.20;99.90;;;;;;5126017;27;20058;-56
2023/08/18 00:15:34;;;;;;;2.13;1.92;;;17.10;99.90;;;;;;5124847;27;20096;-56
2023/08/18 00:18:00;;;;;;;1.02;0.90;;;17.10;99.90;;;;;;5123976;27;20052;-58
2023/08/18 00:20:25;;;;;;;1.95;1.10;;;17.10;99.90;;;;;;5125932;27;20786;-56
2023/08/18 00:22:51;;;;;;;2.03;1.15;;;17.10;99.90;;;;;;5123040;27;20078;-59
2023/08/18 00:25:17;;;;;;;2.63;0.90;;;17.10;99.90;;;;;;5124953;27;20119;-57
2023/08/18 00:27:42;;;;;;;4.45;1.30;;;17.10;99.90;;;;;;5122712;27;20100;-61
2023/08/18 00:30:10;;;;;;;3.15;0.90;;;17.10;99.90;;;;;;5106915;27;20059;-59
2023/08/18 00:32:35;;;;;;;1.25;1.15;;;17.10;99.90;;;;;;5124199;27;20138;-59
2023/08/18 00:35:01;;;;;;;2.92;1.10;;;17.10;99.90;;;;;;5122231;27;20177;-56
2023/08/18 00:37:27;;;;;;;1.05;1.00;;;17.10;99.90;;;;;;5125494;27;20159;-60
2023/08/18 00:39:53;;;;;;;1.50;1.00;;;17.10;99.90;;;;;;5121929;27;20082;-56
2023/08/18 00:42:18;;;;;;;2.55;1.35;;;17.10;99.90;;;;;;5124173;27;20518;-56
2023/08/18 00:44:44;;;;;;;3.22;1.13;;;17.10;99.90;;;;;;5122382;27;20062;-56
2023/08/18 00:47:11;;;;;;;1.65;1.50;;;17.10;99.90;;;;;;5106531;27;20059;-63
2023/08/18 00:49:37;;;;;;;1.27;1.10;;;17.10;99.90;;;;;;5123396;27;20070;-62
2023/08/18 00:52:03;;;;;;;2.00;1.77;;;17.00;99.90;;;;;;5075246;27;1300486;-62
2023/08/18 00:54:34;;;;;;;5.72;2.38;;;17.10;99.90;;;;;;5124140;27;20047;-62
2023/08/18 00:57:00;;;;;;;0.85;0.85;;;17.10;99.90;;;;;;5121878;27;20510;-60
2023/08/18 00:59:26;;;;;;;1.67;1.58;;;17.00;99.90;;;;;;5124184;27;20120;-57
2023/08/18 01:01:52;;;;;;;1.30;1.20;;;17.00;99.90;;;;;;5103233;27;20055;-56
2023/08/18 01:04:18;;;;;;;4.35;1.65;;;17.00;99.90;;;;;;5124774;27;20055;-58
2023/08/18 01:06:44;;;;;;;2.55;1.25;;;17.00;99.90;;;;;;5122230;27;20139;-56
2023/08/18 01:09:10;;;;;;;2.33;1.52;;;17.00;99.90;;;;;;5119709;27;20047;-57
2023/08/18 01:11:55;;;;;;;2.72;1.80;;;17.00;99.90;;;;;;5122782;27;20539;-56
2023/08/18 01:14:26;;;;;;;2.63;1.38;;;17.00;99.90;;;;;;5119699;27;20065;-57
2023/08/18 01:16:59;;;;;;;2.78;1.65;;;16.90;99.90;;;;;;5104963;27;20400;-57
2023/08/18 01:19:26;;;;;;;2.50;1.30;;;17.00;99.90;;;;;;5124099;27;20074;-56
2023/08/18 01:21:55;;;;;;;2.38;1.92;;;16.90;99.90;;;;;;5120870;27;20063;-57
2023/08/18 01:24:24;;;;;;;2.08;1.45;;;16.90;99.90;;;;;;5123451;27;20110;-57
2023/08/18 01:26:51;;;;;;;2.60;1.52;;;16.90;99.90;;;;;;5119160;27;20074;-56
2023/08/18 01:29:18;;;;;;;6.93;2.08;;;16.90;99.90;;;;;;5123675;27;20081;-56
2023/08/18 01:31:47;;;;;;;1.65;1.55;;;16.90;99.90;;;;;;5086811;27;20051;-56
2023/08/18 01:34:16;;;;;;;2.92;1.85;;;16.90;99.90;;;;;;5123534;27;20051;-57
2023/08/18 01:36:44;;;;;;;3.70;1.88;;;16.80;99.90;;;;;;5121173;27;20507;-57
2023/08/18 01:39:12;;;;;;;4.82;1.63;;;16.80;99.90;;;;;;5124089;27;20138;-56
2023/08/18 01:41:41;;;;;;;3.50;2.50;;;16.80;99.90;;;;;;5094910;27;20057;-57
2023/08/18 01:44:07;;;;;;;2.47;1.90;;;16.80;99.90;;;;;;5121723;27;20058;-57
2023/08/18 01:46:34;;;;;;;2.92;1.63;;;16.80;99.90;;;;;;5106241;27;20059;-57
2023/08/18 01:49:00;;;;;;;3.00;1.70;;;16.80;99.90;;;;;;5121099;27;20134;-56
2023/08/18 01:51:25;;;;;;;2.63;2.28;;;16.80;99.90;;;;;;5123651;27;20302;-56
2023/08/18 01:53:51;;;;;;;2.90;2.38;;;16.90;99.90;;;;;;5102652;27;20499;-58
2023/08/18 01:56:17;;;;;;;4.50;2.42;;;16.80;99.90;;;;;;5123596;27;20104;-55
2023/08/18 01:58:42;;;;;;;2.25;2.03;;;16.80;99.90;;;;;;5097732;28;20055;-58
2023/08/18 02:01:08;;;;;;;2.60;1.90;;;16.80;99.90;;;;;;5122543;27;20057;-56
2023/08/18 02:03:34;;;;;;;5.65;2.67;;;16.80;99.90;;;;;;5104089;27;20115;-56
2023/08/18 02:06:03;;;;;;;2.15;1.90;;;16.80;99.90;;;;;;5120767;27;20699;-56
2023/08/18 02:08:28;;;;;;;4.75;2.65;;;16.90;99.90;;;;;;5118673;27;20065;-57
2023/08/18 02:11:02;;;;;;;4.20;2.50;;;16.80;99.90;;;;;;5118936;27;20108;-58
2023/08/18 02:13:28;;;;;;;2.97;2.30;;;16.90;99.90;;;;;;5122070;27;20059;-58
2023/08/18 02:15:54;;;;;;;5.03;2.17;;;16.80;99.90;;;;;;5102131;27;21752;-58
2023/08/18 02:18:19;;;;;;;3.45;2.28;;;16.80;99.90;;;;;;5104722;27;20196;-58
2023/08/18 02:20:45;;;;;;;2.63;2.42;;;16.80;99.90;;;;;;5119661;27;20065;-57
2023/08/18 02:23:11;;;;;;;4.45;2.33;;;16.80;99.90;;;;;;5122066;27;20168;-58
2023/08/18 02:25:36;;;;;;;2.88;2.40;;;16.90;99.90;;;;;;5120917;27;20670;-57
2023/08/18 02:28:02;;;;;;;2.95;2.20;;;16.90;99.90;;;;;;5120849;27;20059;-58
2023/08/18 02:30:28;;;;;;;4.13;2.63;;;16.90;99.90;;;;;;5122516;27;20154;-57
2023/08/18 02:32:54;;;;;;;2.83;2.30;;;16.80;99.90;;;;;;5120386;27;20100;-57
2023/08/18 02:35:19;;;;;;;4.97;3.35;;;16.90;99.90;;;;;;5122189;27;20062;-57
2023/08/18 02:37:45;;;;;;;3.95;2.70;;;16.90;99.90;;;;;;5120487;27;20146;-58
2023/08/18 02:40:11;;;;;;;3.03;2.42;;;16.90;99.90;;;;;;5122180;27;20576;-57
2023/08/18 02:42:36;;;;;;;4.03;2.85;;;16.90;99.90;;;;;;5097670;27;20055;-58
2023/08/18 02:45:02;;;;;;;6.88;3.25;;;16.90;99.90;;;;;;5120276;27;20065;-57
2023/08/18 02:47:28;;;;;;;3.97;2.75;;;16.90;99.90;;;;;;5122899;27;20055;-58
2023/08/18 02:49:54;;;;;;;3.38;2.65;;;16.90;99.90;;;;;;5119387;27;21128;-57
2023/08/18 02:52:19;;;;;;;4.70;2.38;;;16.90;99.90;;;;;;5122116;27;20092;-57
2023/08/18 02:54:45;;;;;;;5.15;2.92;;;16.90;99.90;;;;;;5102421;27;20620;-57
2023/08/18 02:57:11;;;;;;;5.47;3.08;;;16.80;99.90;;;;;;5093011;28;20070;-58
2023/08/18 02:59:37;;;;;;;4.13;2.83;;;16.80;99.90;;;;;;5100179;28;20829;-57
2023/08/18 03:02:03;;;;;;;4.07;2.72;;;16.90;99.90;;;;;;5100932;28;20492;-57
2023/08/18 03:04:29;;;;;;;3.45;2.40;;;16.90;99.90;;;;;;5100850;28;20090;-57
2023/08/18 03:06:55;;;;;;;3.65;2.80;;;16.90;99.90;;;;;;5116517;27;20567;-57
2023/08/18 03:09:21;;;;;;;6.40;3.78;;;16.90;99.90;;;;;;5122066;27;20150;-56
2023/08/18 03:11:47;;;;;;;4.22;3.40;;;16.80;99.90;;;;;;5118976;27;20082;-56
2023/08/18 03:14:13;;;;;;;3.40;2.85;;;16.90;99.90;;;;;;5122687;27;20160;-56
2023/08/18 03:16:38;;;;;;;3.53;2.72;;;16.90;99.90;;;;;;5119829;27;20074;-55
2023/08/18 03:19:04;;;;;;;5.28;3.58;;;16.90;99.90;;;;;;5121448;27;20059;-57
2023/08/18 03:21:30;;;;;;;3.33;2.88;;;16.80;99.90;;;;;;5121565;27;20074;-56
2023/08/18 03:23:55;;;;;;;6.97;4.40;;;16.80;99.90;;;;;;5101442;27;20047;-56
2023/08/18 03:26:21;;;;;;;4.35;3.17;;;16.80;99.90;;;;;;5121722;27;20527;-57
2023/08/18 03:28:47;;;;;;;4.63;2.72;;;16.80;99.90;;;;;;5119158;27;20170;-55
2023/08/18 03:31:13;;;;;;;5.68;3.10;;;16.80;99.90;;;;;;5121011;27;20072;-56
2023/08/18 03:33:38;;;;;;;3.90;2.92;;;16.80;99.90;;;;;;5120362;27;20088;-56
2023/08/18 03:36:04;;;;;;;6.80;3.67;;;16.80;99.90;;;;;;5120974;27;20167;-57
2023/08/18 03:38:30;;;;;;;2.83;2.58;;;16.80;99.90;;;;;;5121972;27;20127;-56
2023/08/18 03:41:03;;;;;;;4.70;3.70;;;16.80;99.90;;;;;;5118805;27;20050;-56
2023/08/18 03:43:29;;;;;;;3.95;3.08;;;16.80;99.90;;;;;;5121962;28;20131;-59
2023/08/18 03:46:00;;;;;;;4.75;3.50;;;16.90;99.90;;;;;;5118093;27;20079;-56
2023/08/18 03:48:26;;;;;;;5.15;3.45;;;16.80;99.90;;;;;;5122232;27;20057;-56
2023/08/18 03:50:51;;;;;;;8.98;3.13;;;16.80;99.90;;;;;;5091726;27;20064;-56
2023/08/18 03:53:17;;;;;;;6.97;3.65;;;16.90;99.90;;;;;;5122014;27;20063;-56
2023/08/18 03:55:43;;;;;;;4.07;3.08;;;16.80;99.90;;;;;;5100792;28;20138;-56
2023/08/18 03:58:09;;;;;;;4.47;2.90;;;16.90;99.90;;;;;;5121439;27;20111;-56
2023/08/18 04:00:35;;;;;;;4.47;3.17;;;16.90;99.90;;;;;;5120273;27;20050;-54
2023/08/18 04:03:00;;;;;;;6.30;2.92;;;16.80;99.90;;;;;;5119319;27;20053;-56
2023/08/18 04:05:26;;;;;;;5.20;3.53;;;16.90;99.90;;;;;;5120960;27;20058;-56
2023/08/18 04:07:52;;;;;;;7.45;3.28;;;16.90;99.90;;;;;;5118795;27;20051;-55
2023/08/18 04:10:17;;;;;;;6.68;3.55;;;16.90;99.90;;;;;;5123818;27;20093;-56
2023/08/18 04:12:43;;;;;;;5.53;3.97;;;16.90;99.90;;;;;;5122329;27;20492;-55
2023/08/18 04:15:09;;;;;;;7.18;3.65;;;16.90;99.90;;;;;;5125087;27;20088;-57
2023/08/18 04:17:35;;;;;;;5.45;3.55;;;16.90;99.90;;;;;;5123792;27;20150;-56
2023/08/18 04:20:00;;;;;;;5.75;3.47;;;16.90;99.90;;;;;;5123329;27;20059;-56
2023/08/18 04:22:26;;;;;;;4.85;3.38;;;16.90;99.90;;;;;;5125351;27;20051;-56
2023/08/18 04:24:52;;;;;;;3.70;3.00;;;16.90;99.90;;;;;;5122450;27;20575;-56
2023/08/18 04:27:17;;;;;;;5.15;3.58;;;16.90;99.90;;;;;;5125275;27;20099;-56
2023/08/18 04:29:44;;;;;;;4.00;3.17;;;16.90;99.90;;;;;;5103700;27;20516;-55
2023/08/18 04:32:10;;;;;;;4.82;2.92;;;16.90;99.90;;;;;;5124743;27;20073;-56
2023/08/18 04:34:35;;;;;;;4.78;3.30;;;17.00;99.90;;;;;;5123226;27;20492;-55
2023/08/18 04:37:02;;;;;;;4.97;2.95;;;17.00;99.90;;;;;;5105155;27;20134;-57
2023/08/18 04:39:29;;;;;;;5.47;3.40;;;17.00;99.90;;;;;;5124498;27;20142;-56
2023/08/18 04:41:55;;;;;;;5.20;3.50;;;17.00;99.90;;;;;;5121589;27;20138;-57
2023/08/18 04:44:20;;;;;;;5.85;3.13;;;17.00;99.90;;;;;;5124084;27;20061;-56
2023/08/18 04:46:46;;;;;;;4.63;3.67;;;17.00;99.90;;;;;;5120913;27;20063;-56
2023/08/18 04:49:12;;;;;;;7.95;4.47;;;17.00;99.90;;;;;;5124523;27;20047;-56
2023/08/18 04:51:37;;;;;;;6.07;2.92;;;17.00;99.90;;;;;;5103516;27;20047;-56
2023/08/18 04:54:03;;;;;;;4.97;4.10;;;17.00;99.90;;;;;;5123095;27;20046;-57
2023/08/18 04:56:29;;;;;;;7.13;3.75;;;17.10;99.90;;;;;;5124362;27;20399;-56
2023/08/18 04:58:55;;;;;;;6.20;3.00;;;17.00;99.90;;;;;;5084510;27;20519;-56
2023/08/18 05:01:21;;;;;;;7.88;3.38;;;17.10;99.90;;;;;;5123175;27;20112;-56
2023/08/18 05:03:46;;;;;;;4.85;3.13;;;17.10;99.90;;;;;;5088264;27;20595;-55
2023/08/18 05:06:13;;;;;;;4.15;2.38;;;17.10;99.90;;;;;;5123494;27;20055;-56
2023/08/18 05:08:40;;;;;;;3.88;2.90;;;17.10;99.90;;;;;;5082744;27;1102648;-62
2023/08/18 05:11:08;;;;;;;4.05;2.75;;;17.10;99.90;;;;;;5120163;27;20062;-63
2023/08/18 05:13:36;;;;;;;4.60;3.47;;;17.20;99.90;;;;;;5119740;27;20047;-55
2023/08/18 05:16:05;;;;;;;3.47;2.70;;;17.20;99.90;;;;;;5105484;27;20065;-57
2023/08/18 05:18:35;;;;;;;5.43;2.90;;;17.20;99.90;;;;;;5100547;27;20051;-57
2023/08/18 05:21:02;;;;;;;4.20;2.83;;;17.30;99.90;;;;;;5118707;27;20488;-57
2023/08/18 05:23:30;;;;;;;5.70;3.53;;;17.30;99.90;;;;;;5122676;27;20072;-56
2023/08/18 05:26:00;;;;;;;4.82;3.60;;;17.30;99.90;;;;;;5097719;28;20421;-56
2023/08/18 05:28:29;;;;;;;3.97;3.20;;;17.30;99.90;;;;;;5084184;28;20051;-56
2023/08/18 05:30:54;;;;;;;5.15;3.47;;;17.40;99.90;;;;;;5091563;28;20764;-56
2023/08/18 05:33:20;;;;;;;4.65;2.92;;;17.40;99.90;;;;;;5098206;28;20056;-56
2023/08/18 05:35:50;;;;;;;6.43;3.75;;;17.30;99.90;;;;;;5092659;28;20052;-57
2023/08/18 05:38:16;;;;;;;6.20;3.88;;;17.30;99.90;;;;;;5118165;27;20088;-56
2023/08/18 05:40:47;;;;;;;6.45;2.95;;;17.40;99.90;;;;;;5121432;27;20412;-56
2023/08/18 05:43:16;;;;;;;6.63;3.60;;;17.40;99.90;;;;;;5118728;27;20564;-56
2023/08/18 05:45:44;;;;;;;4.50;3.17;;;17.50;99.90;;;;;;5107707;27;20059;-56
2023/08/18 05:48:11;;;;;;;4.70;2.70;;;17.50;99.90;;;;;;5121228;27;20150;-56
2023/08/18 05:50:36;;;;;;;4.75;3.10;;;17.50;99.90;;;;;;5117605;27;20141;-56
2023/08/18 05:53:03;;;;;;;5.25;3.42;;;17.60;99.90;;;;;;5083856;28;20073;-56
2023/08/18 05:55:29;;;;;;;6.60;3.28;;;17.60;99.90;;;;;;5114264;27;20145;-56
2023/08/18 05:57:59;;;;;;;7.07;4.13;;;17.70;99.90;;;;;;5120038;27;20063;-56
2023/08/18 06:00:25;;;;;;;3.65;2.72;;;17.70;99.90;;;;;;5123035;27;20137;-56
2023/08/18 06:02:53;;;;;;;3.47;3.17;;;17.80;99.90;;;;;;5120276;27;20146;-56
2023/08/18 06:05:19;;;;;;;5.53;2.90;;;17.80;99.90;;;;;;5122927;27;20070;-56
2023/08/18 06:07:45;;;;;;;6.03;2.75;;;17.80;99.90;;;;;;5120739;27;20475;-57
2023/08/18 06:10:13;;;;;;;6.47;3.30;;;17.90;99.90;;;;;;5123052;27;20066;-57
2023/08/18 06:12:39;;;;;;;5.78;3.50;;;17.90;99.90;;;;;;5120923;27;20055;-55
2023/08/18 06:15:06;;;;;;;6.10;3.13;;;17.90;99.90;;;;;;5120434;27;20058;-56
2023/08/18 06:17:36;;;;;;;10.00;3.20;;;17.90;99.90;;;;;;5120927;27;20810;-57
2023/08/18 06:20:01;;;;;;;5.32;2.72;;;18.70;99.90;;;;;;5113876;27;20058;-57
2023/08/18 06:22:27;;;;;;;11.10;3.13;;;18.00;99.90;;;;;;5118421;27;20534;-57
2023/08/18 06:24:53;;;;;;;7.22;3.35;;;18.00;99.90;;;;;;5117904;27;20094;-57
2023/08/18 06:27:19;;;;;;;3.78;2.80;;;18.10;99.90;;;;;;5118606;27;20150;-58
2023/08/18 06:29:44;;;;;;;5.90;3.70;;;18.20;99.90;;;;;;5116645;27;20507;-56
2023/08/18 06:32:10;;;;;;;6.00;2.75;;;18.20;99.90;;;;;;5120312;27;20096;-57
2023/08/18 06:34:36;;;;;;;5.20;2.95;;;18.20;99.90;;;;;;5112435;27;20657;-57
2023/08/18 06:37:02;;;;;;;7.32;3.40;;;18.20;99.90;;;;;;5117318;27;20959;-57
2023/08/18 06:39:28;;;;;;;5.60;2.67;;;18.30;99.90;;;;;;5097206;27;20070;-56
2023/08/18 06:41:54;;;;;;;5.68;3.15;;;18.40;99.90;;;;;;5113062;27;20054;-57
2023/08/18 06:44:20;;;;;;;9.65;3.30;;;18.50;99.90;;;;;;5112870;27;20708;-57
2023/08/18 06:46:46;;;;;;;7.13;3.65;;;18.50;99.90;;;;;;5116421;27;20131;-57
2023/08/18 06:49:12;;;;;;;5.18;2.70;;;18.60;99.90;;;;;;5113084;27;20795;-57
2023/08/18 06:51:38;;;;;;;6.25;3.53;;;18.60;99.90;;;;;;5099461;27;20051;-56
2023/08/18 06:54:04;;;;;;;4.30;3.25;;;18.70;99.90;;;;;;5116782;27;20556;-57
2023/08/18 06:56:30;;;;;;;10.50;3.28;;;18.70;99.90;;;;;;5113649;27;20062;-57
2023/08/18 06:58:55;;;;;;;6.43;3.00;;;18.70;99.90;;;;;;5114246;27;20063;-56
2023/08/18 07:01:21;;;;;;;4.35;2.67;;;18.80;99.90;;;;;;5098524;27;20424;-57
2023/08/18 07:03:48;;;;;;;4.72;2.65;;;18.80;99.90;;;;;;5104360;27;20058;-56
2023/08/18 07:06:14;;;;;;;5.20;3.03;;;18.90;99.90;;;;;;5099462;27;20047;-57
2023/08/18 07:08:39;;;;;;;7.35;2.80;;;18.90;99.90;;;;;;5093963;27;20047;-60
2023/08/18 07:11:05;;;;;;;5.95;3.70;;;18.90;99.90;;;;;;5109374;27;20804;-58
2023/08/18 07:13:35;;;;;;;3.35;2.90;;;18.90;99.90;;;;;;5113497;27;20055;-57
2023/08/18 07:16:02;;;;;;;5.30;3.53;;;18.80;99.90;;;;;;5110226;27;20055;-57
2023/08/18 07:18:28;;;;;;;10.25;3.78;;;18.80;99.90;;;;;;5113420;27;20136;-58
2023/08/18 07:20:53;;;;;;;7.05;2.85;;;18.80;99.90;;;;;;5108281;27;20063;-57
2023/08/18 07:23:19;;;;;;;6.03;3.35;;;18.80;99.90;;;;;;5095730;28;20056;-59
2023/08/18 07:25:45;;;;;;;6.57;3.75;;;18.80;99.90;;;;;;5107468;27;20086;-58
2023/08/18 07:28:11;;;;;;;9.52;3.83;;;18.80;99.90;;;;;;5114134;28;20080;-60
2023/08/18 07:30:36;;;;;;;8.85;4.60;;;18.80;99.90;;;;;;5094445;28;20067;-61
2023/08/18 07:33:02;;;;;;;10.55;4.93;;;18.90;99.90;;;;;;5104628;27;20412;-61
2023/08/18 07:35:28;;;;;;;10.38;4.90;;;19.00;99.90;;;;;;5112039;27;20055;-57
2023/08/18 07:37:54;;;;;;;11.13;4.88;;;19.00;99.90;;;;;;5082649;28;20119;-56
2023/08/18 07:40:20;;;;;;;8.63;4.78;;;19.10;99.90;;;;;;5115494;27;20051;-57
2023/08/18 07:42:45;;;;;;;10.35;4.55;;;19.20;99.90;;;;;;5108440;27;20835;-56
2023/08/18 07:45:11;;;;;;;13.15;5.15;;;19.30;99.90;;;;;;5120480;27;20093;-56
2023/08/18 07:47:38;;;;;;;15.25;5.90;;;19.50;99.90;;;;;;5119110;27;20783;-56
2023/08/18 07:50:09;;;;;;;9.30;3.88;;;19.60;99.90;;;;;;5102203;27;20056;-56
2023/08/18 07:52:35;;;;;;;8.30;4.78;;;19.70;99.90;;;;;;5096507;27;20055;-56
2023/08/18 07:55:05;;;;;;;10.50;4.15;;;19.80;99.90;;;;;;5095882;27;20397;-57
2023/08/18 07:57:37;;;;;;;13.52;5.88;;;19.90;99.90;;;;;;5100833;28;20051;-60
2023/08/18 08:00:16;;;;;;;10.88;5.22;;;20.00;99.90;;;;;;5092487;28;20054;-57
2023/08/18 08:02:42;;;;;;;9.77;3.95;;;20.20;99.90;;;;;;5075773;28;20481;-58
2023/08/18 08:05:08;;;;;;;7.18;3.80;;;20.30;99.90;;;;;;5091319;27;20527;-56
2023/08/18 08:07:34;;;;;;;13.07;5.22;;;20.40;99.90;;;;;;5100237;27;20082;-56
2023/08/18 08:10:03;;;;;;;7.88;4.32;;;20.30;99.90;;;;;;5100397;28;20137;-56
2023/08/18 08:12:30;;;;;;;11.18;5.00;;;20.20;99.90;;;;;;5099213;27;20059;-56
2023/08/18 08:14:57;;;;;;;9.63;4.78;;;20.20;99.90;;;;;;5099067;27;20470;-56
2023/08/18 08:17:23;;;;;;;8.90;4.63;;;20.20;99.90;;;;;;5099149;28;20052;-56
2023/08/18 08:19:50;;;;;;;13.10;5.97;;;20.30;99.90;;;;;;5097020;28;20146;-56
2023/08/18 08:22:16;;;;;;;10.02;5.40;;;20.20;99.90;;;;;;5099472;27;20071;-57
2023/08/18 08:24:43;;;;;;;10.57;4.78;;;20.10;99.90;;;;;;5099327;27;20571;-57
2023/08/18 08:27:09;;;;;;;9.10;4.00;;;20.20;99.90;;;;;;5098321;27;20139;-56
2023/08/18 08:29:34;;;;;;;8.07;3.70;;;20.30;99.90;;;;;;5096563;27;20058;-56
2023/08/18 08:32:00;;;;;;;7.13;3.45;;;20.40;99.90;;;;;;5095139;27;20051;-56
2023/08/18 08:34:26;;;;;;;6.90;3.50;;;20.30;99.90;;;;;;5091486;27;20055;-56
2023/08/18 08:36:52;;;;;;;6.25;3.25;;;20.30;99.90;;;;;;5098005;27;20056;-59
2023/08/18 08:39:18;;;;;;;5.35;3.45;;;20.20;99.90;;;;;;5100297;27;20786;-56
2023/08/18 08:41:43;;;;;;;5.05;3.47;;;20.30;99.90;;;;;;5100307;27;20070;-57
2023/08/18 08:44:09;;;;;;;4.35;3.22;;;20.40;99.90;;;;;;5111258;27;20043;-61
2023/08/18 08:46:37;;;;;;;4.97;3.25;;;20.40;99.90;;;;;;5098848;27;20055;-55
2023/08/18 08:49:07;;;;;;;8.18;4.07;;;20.60;99.90;;;;;;5098733;28;21213;-57
2023/08/18 08:51:37;;;;;;;3.72;3.00;;;20.90;99.90;;;;;;5100303;27;20137;-57
2023/08/18 08:54:05;;;;;;;3.75;3.45;;;21.00;99.90;;;;;;5089662;28;20077;-56
2023/08/18 08:56:34;;;;;;;5.38;3.08;;;21.30;99.90;;;;;;5098644;27;20063;-57
2023/08/18 08:59:00;;;;;;;4.47;3.60;;;21.30;99.90;;;;;;5115473;27;20076;-57
2023/08/18 09:01:26;;;;;;;6.35;3.33;;;21.30;99.90;;;;;;5103800;27;20778;-56
2023/08/18 09:03:53;;;;;;;5.00;3.33;;;21.40;99.90;;;;;;5112086;27;20070;-57
2023/08/18 09:06:19;;;;;;;3.53;3.10;;;21.50;99.90;;;;;;5119744;27;20070;-57
2023/08/18 09:08:45;;;;;;;5.05;4.03;;;21.50;99.90;;;;;;5115166;27;20055;-57
2023/08/18 09:11:10;;;;;;;8.25;3.75;;;21.60;99.90;;;;;;5095921;28;20051;-56
2023/08/18 09:13:36;;;;;;;4.63;3.53;;;21.60;99.90;;;;;;5077294;27;20080;-57
2023/08/18 09:16:06;;;;;;;8.00;3.10;;;21.70;99.90;;;;;;5118428;27;20487;-57
2023/08/18 09:21:04;;;;;;;3.20;2.67;;;22.20;99.90;;;;;;5114538;27;20055;-57
2023/08/18 09:23:30;;;;;;;3.72;3.22;;;22.60;99.90;;;;;;5107844;27;20048;-56
2023/08/18 09:25:57;;;;;;;4.57;3.53;;;22.60;99.90;;;;;;5068840;27;1136628;-57
2023/08/18 09:28:26;;;;;;;6.35;4.50;;;22.70;99.90;;;;;;5115031;27;20055;-57
2023/08/18 09:30:52;;;;;;;7.80;3.55;;;23.10;99.90;;;;;;5101827;27;20054;-57
2023/08/18 09:33:26;;;;;;;3.30;2.85;;;23.20;99.90;;;;;;5118961;27;20062;-57
2023/08/18 09:36:01;;;;;;;7.38;3.88;;;23.60;99.90;;;;;;5113936;27;20067;-57
2023/08/18 09:38:27;;;;;;;8.88;4.25;;;23.50;99.90;;;;;;5120750;27;20073;-57
2023/08/18 09:40:56;;;;;;;8.02;4.40;;;23.70;99.90;;;;;;5114444;27;20087;-57
2023/08/18 09:43:24;;;;;;;3.78;3.25;;;24.00;99.90;;;;;;5101295;27;20484;-56
2023/08/18 09:45:52;;;;;;;6.18;3.25;;;24.20;99.90;;;;;;5114675;27;20063;-56
2023/08/18 09:48:21;;;;;;;8.45;4.38;;;24.50;99.90;;;;;;5117596;27;20075;-57
2023/08/18 09:50:49;;;;;;;6.90;4.07;;;24.50;99.90;;;;;;5095377;27;20060;-57
2023/08/18 09:53:15;;;;;;;6.65;4.38;;;24.20;99.90;;;;;;5099160;27;20051;-57
2023/08/18 09:55:46;;;;;;;8.18;4.10;;;24.40;99.90;;;;;;5117622;27;20066;-57
2023/08/18 09:58:26;;;;;;;8.77;4.25;;;24.40;99.90;;;;;;5092348;27;20100;-58
2023/08/18 10:00:57;;;;;;;7.05;4.18;;;24.70;99.90;;;;;;5113582;27;20070;-57
2023/08/18 10:03:28;;;;;;;4.80;4.13;;;24.60;99.90;;;;;;5117929;27;20401;-57
2023/08/18 10:05:54;;;;;;;5.20;3.50;;;24.60;99.90;;;;;;5119686;27;20063;-58
2023/08/18 10:08:23;;;;;;;5.68;3.72;;;24.60;99.90;;;;;;5119931;27;20462;-57
2023/08/18 10:10:50;;;;;;;9.45;5.32;;;24.80;99.90;;;;;;5113444;27;20051;-57
2023/08/18 10:13:17;;;;;;;9.30;4.25;;;24.80;99.90;;;;;;5116885;27;20055;-57
2023/08/18 10:15:43;;;;;;;17.98;7.25;;;24.70;99.90;;;;;;5111604;27;20051;-57
2023/08/18 10:18:11;;;;;;;4.35;3.83;;;24.80;99.90;;;;;;5117959;27;20499;-60
2023/08/18 10:20:49;;;;;;;11.23;4.45;;;24.80;99.90;;;;;;5112273;27;20576;-56
2023/08/18 10:23:16;;;;;;;8.50;4.93;;;24.70;99.90;;;;;;5109770;27;20085;-57
2023/08/18 10:25:44;;;;;;;11.95;5.93;;;24.60;99.90;;;;;;5117916;27;20141;-58
2023/08/18 10:28:14;;;;;;;12.48;4.50;;;24.50;99.90;;;;;;5120675;27;20066;-58
2023/08/18 10:30:40;;;;;;;6.70;4.10;;;24.70;99.90;;;;;;5112894;27;20051;-56
2023/08/18 10:33:07;;;;;;;8.20;4.60;;;24.70;99.90;;;;;;5113535;27;20066;-57
2023/08/18 10:35:41;;;;;;;5.30;3.83;;;24.60;99.90;;;;;;5112127;27;20939;-57
2023/08/18 10:38:07;;;;;;;6.90;3.90;;;24.70;99.90;;;;;;5109978;27;20058;-56
2023/08/18 10:40:38;;;;;;;5.88;4.22;;;24.80;99.90;;;;;;5112595;27;20053;-57
2023/08/18 10:43:11;;;;;;;5.30;3.80;;;25.10;99.90;;;;;;5113789;27;20055;-57
2023/08/18 10:45:40;;;;;;;5.95;4.32;;;25.00;99.90;;;;;;5115611;27;20427;-56
2023/08/18 10:48:06;;;;;;;4.63;4.20;;;25.50;99.90;;;;;;5096512;27;20047;-57
2023/08/18 10:50:38;;;;;;;5.32;4.03;;;25.70;99.90;;;;;;5117128;27;20058;-57
2023/08/18 10:53:04;;;;;;;4.65;3.90;;;25.90;99.90;;;;;;5113387;27;20043;-58
2023/08/18 10:55:34;;;;;;;5.75;4.28;;;25.60;99.90;;;;;;5115260;27;20059;-57
2023/08/18 10:58:00;;;;;;;5.50;3.72;;;25.80;99.90;;;;;;5104838;27;21226;-58
2023/08/18 11:00:35;;;;;;;6.55;4.97;;;26.10;99.90;;;;;;5116029;27;20055;-58
2023/08/18 11:03:01;;;;;;;6.70;4.20;;;26.40;99.90;;;;;;5104902;27;21182;-57
2023/08/18 11:05:31;;;;;;;8.65;4.75;;;26.70;99.90;;;;;;5110373;27;20058;-57
2023/08/18 11:07:57;;;;;;;8.35;4.35;;;26.80;99.90;;;;;;5114697;27;20192;-57
2023/08/18 11:10:24;;;;;;;6.07;4.15;;;26.40;99.90;;;;;;5093779;27;20055;-57
2023/08/18 11:12:57;;;;;;;8.27;5.15;;;26.60;99.90;;;;;;5089207;27;20054;-57
2023/08/18 11:15:23;;;;;;;5.82;4.63;;;26.40;99.90;;;;;;5099961;27;20058;-57
2023/08/18 11:17:49;;;;;;;7.88;4.95;;;26.40;99.90;;;;;;5108094;27;20062;-57
2023/08/18 11:20:16;;;;;;;5.57;4.25;;;26.20;99.90;;;;;;5086717;27;20084;-58
2023/08/18 11:22:52;;;;;;;6.47;4.60;;;26.00;99.90;;;;;;5115436;27;20055;-57
2023/08/18 11:25:23;;;;;;;6.43;4.82;;;26.00;99.90;;;;;;5111057;27;20109;-57
2023/08/18 11:27:51;;;;;;;6.88;4.75;;;26.20;99.90;;;;;;5105163;27;20058;-57
2023/08/18 11:30:18;;;;;;;6.10;4.78;;;26.80;99.90;;;;;;5090661;28;20058;-57
2023/08/18 11:32:45;;;;;;;6.10;4.40;;;27.90;99.90;;;;;;5113520;27;20046;-58
2023/08/18 11:35:12;;;;;;;5.07;4.18;;;27.90;99.90;;;;;;5109073;27;20085;-57
2023/08/18 11:37:44;;;;;;;5.80;5.20;;;27.60;99.90;;;;;;5106985;27;20800;-57
2023/08/18 11:40:12;;;;;;;4.78;4.38;;;27.40;99.90;;;;;;5114677;27;20126;-57
2023/08/18 11:42:42;;;;;;;7.28;5.22;;;27.40;99.90;;;;;;5110529;27;20090;-56
2023/08/18 11:45:16;;;;;;;6.53;4.97;;;27.10;99.90;;;;;;5115961;27;20063;-57
2023/08/18 11:47:42;;;;;;;;;;;27.00;99.90;;;;;;5112752;27;20059;-57
2023/08/18 11:50:09;;;;;;;5.05;4.50;;;26.90;99.90;;;;;;5116921;27;19928;-57
2023/08/18 11:52:43;;;;;;;5.78;5.18;;;26.50;99.90;;;;;;5114504;27;20063;-57
2023/08/18 11:55:09;;;;;;;8.32;5.40;;;26.40;99.90;;;;;;5116420;27;20055;-62
2023/08/18 11:58:08;;;;;;;5.32;4.80;;;26.30;99.90;;;;;;5091054;28;20417;-57
2023/08/18 12:00:37;;;;;;;5.85;4.88;;;26.10;99.90;;;;;;5085537;28;20071;-58
2023/08/18 12:03:07;;;;;;;7.00;5.28;;;26.10;99.90;;;;;;5091919;28;20066;-58
2023/08/18 12:05:39;;;;;;;6.18;5.55;;;26.30;99.90;;;;;;5096244;28;20063;-57
2023/08/18 12:08:09;;;;;;;8.25;6.32;;;26.60;99.90;;;;;;5086777;28;20078;-58
2023/08/18 12:10:35;;;;;;;7.55;6.68;;;28.10;99.90;;;;;;5092871;28;20540;-57
2023/08/18 12:13:01;;;;;;;8.65;6.05;;;29.10;99.90;;;;;;5082252;28;20131;-57
2023/08/18 12:15:27;;;;;;;6.30;5.18;;;30.80;99.90;;;;;;5102366;27;20138;-57
2023/08/18 12:17:54;;;;;;;7.88;6.25;;;30.60;99.90;;;;;;5111428;27;20063;-57
2023/08/18 12:20:24;;;;;;;7.32;5.30;;;33.70;99.90;;;;;;5118091;27;20067;-61
2023/08/18 12:22:51;;;;;;;7.55;5.38;;;36.30;99.90;;;;;;5107731;27;20089;-57
2023/08/18 12:25:18;;;;;;;8.15;7.18;;;37.10;99.90;;;;;;5112535;28;20279;-58
2023/08/18 12:27:47;;;;;;;6.10;5.47;;;36.80;99.90;;;;;;5104183;27;20067;-57
2023/08/18 12:30:15;;;;;;;7.32;5.88;;;37.50;99.90;;;;;;5113909;27;20055;-57
2023/08/18 12:32:45;;;;;;;7.88;6.00;;;38.20;99.90;;;;;;5109698;27;20051;-57
2023/08/18 12:35:11;;;;;;;6.28;5.68;;;39.10;99.90;;;;;;5118020;27;20086;-57
2023/08/18 12:37:37;;;;;;;6.28;5.00;;;39.40;99.90;;;;;;5119640;27;20504;-56
2023/08/18 12:40:10;;;;;;;8.40;6.82;;;39.70;99.90;;;;;;5119508;27;20073;-57
2023/08/18 12:42:37;;;;;;;5.85;4.82;;;38.60;99.80;;;;;;5118779;27;20500;-58
2023/08/18 12:45:04;;;;;;;6.45;5.53;;;39.70;99.90;;;;;;5112847;27;20138;-57
2023/08/18 12:47:29;;;;;;;7.78;5.63;;;40.00;99.10;;;;;;5117913;27;20086;-57